createdAt,value
2022-09-12T00:01:20.066Z,13.30
2022-09-12T00:03:48.627Z,13.32
2022-09-12T00:06:28.497Z,13.28
2022-09-12T00:08:59.051Z,13.26
2022-09-12T00:11:27.681Z,13.29
2022-09-12T00:14:00.516Z,13.28
2022-09-12T00:16:30.647Z,13.30
2022-09-12T00:18:58.705Z,13.26
2022-09-12T00:21:27.072Z,13.19
2022-09-12T00:23:55.237Z,13.21
2022-09-12T00:26:23.068Z,13.12
2022-09-12T00:28:51.553Z,13.04
2022-09-12T00:31:24.003Z,13.00
2022-09-12T00:33:52.914Z,13.08
2022-09-12T00:36:22.753Z,13.10
2022-09-12T00:38:51.240Z,13.07
2022-09-12T00:41:21.855Z,13.01
2022-09-12T00:43:52.063Z,12.97
2022-09-12T00:46:28.144Z,12.97
2022-09-12T00:49:29.017Z,12.91
2022-09-12T00:52:00.581Z,12.88
2022-09-12T00:54:34.075Z,12.93
2022-09-12T00:57:06.235Z,12.87
2022-09-12T00:59:49.114Z,12.80
2022-09-12T01:02:17.776Z,12.80
2022-09-12T01:04:47.758Z,12.77
2022-09-12T01:07:16.335Z,12.79
2022-09-12T01:09:46.030Z,12.73
2022-09-12T01:12:15.793Z,12.64
2022-09-12T01:14:43.742Z,12.64
2022-09-12T01:17:14.878Z,12.63
2022-09-12T01:20:09.225Z,12.60
2022-09-12T01:22:42.838Z,12.56
2022-09-12T01:25:33.942Z,12.57
2022-09-12T01:28:23.410Z,12.66
2022-09-12T01:31:00.863Z,12.59
2022-09-12T01:33:56.112Z,12.56
2022-09-12T01:36:48.187Z,12.57
2022-09-12T01:39:21.153Z,12.59
2022-09-12T01:41:54.469Z,12.57
2022-09-12T01:44:36.648Z,12.55
2022-09-12T01:47:26.979Z,12.52
2022-09-12T01:50:02.972Z,12.56
2022-09-12T01:52:42.807Z,12.49
2022-09-12T01:55:32.061Z,12.45
2022-09-12T01:58:25.070Z,12.38
2022-09-12T02:01:02.879Z,12.39
2022-09-12T02:03:46.447Z,12.29
2022-09-12T02:06:29.646Z,12.25
2022-09-12T02:09:12.758Z,12.24
2022-09-12T02:11:44.634Z,12.21
2022-09-12T02:14:24.853Z,12.19
2022-09-12T02:17:07.619Z,12.24
2022-09-12T02:19:45.628Z,12.22
2022-09-12T02:22:18.345Z,12.17
2022-09-12T02:24:51.056Z,12.18
2022-09-12T02:27:26.252Z,12.17
2022-09-12T02:29:54.392Z,12.11
2022-09-12T02:32:53.288Z,12.04
2022-09-12T02:35:33.858Z,11.99
2022-09-12T02:38:13.592Z,11.97
2022-09-12T02:40:41.941Z,11.94
2022-09-12T02:43:09.982Z,11.87
2022-09-12T02:45:38.508Z,11.88
2022-09-12T02:48:18.236Z,11.83
2022-09-12T02:50:46.690Z,11.81
2022-09-12T02:53:15.335Z,11.76
2022-09-12T02:55:44.050Z,11.74
2022-09-12T02:58:17.426Z,11.70
2022-09-12T03:00:59.493Z,11.70
2022-09-12T03:03:58.347Z,11.70
2022-09-12T03:06:33.654Z,11.66
2022-09-12T03:09:27.197Z,11.67
2022-09-12T03:11:57.663Z,11.66
2022-09-12T03:14:43.451Z,11.73
2022-09-12T03:17:57.103Z,11.69
2022-09-12T03:20:38.932Z,11.64
2022-09-12T03:23:24.852Z,11.57
2022-09-12T03:25:59.253Z,11.53
2022-09-12T03:28:27.675Z,11.53
2022-09-12T03:30:56.466Z,11.53
2022-09-12T03:33:25.999Z,11.53
2022-09-12T03:35:54.849Z,11.50
2022-09-12T03:38:22.601Z,11.47
2022-09-12T03:40:54.527Z,11.47
2022-09-12T03:43:22.705Z,11.44
2022-09-12T03:45:53.611Z,11.46
2022-09-12T03:48:21.905Z,11.42
2022-09-12T03:50:49.627Z,11.44
2022-09-12T03:53:20.299Z,11.43
2022-09-12T03:55:48.075Z,11.46
2022-09-12T03:58:18.884Z,11.46
2022-09-12T04:00:47.096Z,11.49
2022-09-12T04:03:15.127Z,11.50
2022-09-12T04:05:42.922Z,11.50
2022-09-12T04:08:10.641Z,11.47
2022-09-12T04:10:38.629Z,11.49
2022-09-12T04:13:06.648Z,11.44
2022-09-12T04:15:34.906Z,11.43
2022-09-12T04:18:05.952Z,11.40
2022-09-12T04:20:34.042Z,11.36
2022-09-12T04:23:01.780Z,11.36
2022-09-12T04:25:31.390Z,11.32
2022-09-12T04:27:59.197Z,11.33
2022-09-12T04:30:27.188Z,11.32
2022-09-12T04:32:54.979Z,11.30
2022-09-12T04:35:23.087Z,11.33
2022-09-12T04:37:50.795Z,11.36
2022-09-12T04:40:19.376Z,11.38
2022-09-12T04:42:47.508Z,11.38
2022-09-12T04:45:16.666Z,11.40
2022-09-12T04:47:45.915Z,11.42
2022-09-12T04:50:14.824Z,11.43
2022-09-12T04:52:42.711Z,11.44
2022-09-12T04:55:10.918Z,11.49
2022-09-12T04:57:38.667Z,11.52
2022-09-12T05:00:07.533Z,11.53
2022-09-12T05:02:35.685Z,11.52
2022-09-12T05:05:03.726Z,11.53
2022-09-12T05:07:32.339Z,11.59
2022-09-12T05:10:00.447Z,11.64
2022-09-12T05:12:28.963Z,11.70
2022-09-12T05:14:56.961Z,11.73
2022-09-12T05:17:24.871Z,11.78
2022-09-12T05:19:52.746Z,11.83
2022-09-12T05:22:20.704Z,11.88
2022-09-12T05:24:50.726Z,11.94
2022-09-12T05:27:20.085Z,12.04
2022-09-12T05:29:48.073Z,12.12
2022-09-12T05:32:16.158Z,12.29
2022-09-12T05:34:44.068Z,12.46
2022-09-12T05:37:12.745Z,12.66
2022-09-12T05:39:41.494Z,12.77
2022-09-12T05:42:10.695Z,12.77
2022-09-12T05:44:39.246Z,12.72
2022-09-12T05:47:07.525Z,12.72
2022-09-12T05:49:36.214Z,12.72
2022-09-12T05:52:04.342Z,12.70
2022-09-12T05:54:34.271Z,12.76
2022-09-12T05:57:02.029Z,12.73
2022-09-12T05:59:30.062Z,12.80
2022-09-12T06:01:58.262Z,12.83
2022-09-12T06:04:26.537Z,12.80
2022-09-12T06:06:54.430Z,12.79
2022-09-12T06:09:22.804Z,12.83
2022-09-12T06:11:51.807Z,12.87
2022-09-12T06:14:20.476Z,12.87
2022-09-12T06:16:49.959Z,12.90
2022-09-12T06:19:20.290Z,12.97
2022-09-12T06:21:49.568Z,13.00
2022-09-12T06:24:18.669Z,13.08
2022-09-12T06:26:50.319Z,13.10
2022-09-12T06:29:19.317Z,13.14
2022-09-12T06:31:47.215Z,13.18
2022-09-12T06:34:16.496Z,13.23
2022-09-12T06:36:46.809Z,13.28
2022-09-12T06:39:17.477Z,13.30
2022-09-12T06:41:46.254Z,13.40
2022-09-12T06:44:17.740Z,13.46
2022-09-12T06:46:46.023Z,13.57
2022-09-12T06:49:14.318Z,13.67
2022-09-12T06:51:42.655Z,13.80
2022-09-12T06:54:13.980Z,13.90
2022-09-12T06:56:41.951Z,14.01
2022-09-12T06:59:10.012Z,14.21
2022-09-12T07:01:38.634Z,14.36
2022-09-12T07:04:09.046Z,14.62
2022-09-12T07:06:39.880Z,14.69
2022-09-12T07:09:11.534Z,14.90
2022-09-12T07:11:41.883Z,15.22
2022-09-12T07:14:12.977Z,15.76
2022-09-12T07:16:41.302Z,16.28
2022-09-12T07:19:10.799Z,16.17
2022-09-12T07:21:40.229Z,16.00
2022-09-12T07:24:10.677Z,15.94
2022-09-12T07:26:40.509Z,16.53
2022-09-12T07:29:35.444Z,16.55
2022-09-12T07:32:02.293Z,16.53
2022-09-12T07:34:30.212Z,16.56
2022-09-12T07:36:58.737Z,16.79
2022-09-12T07:39:26.568Z,17.31
2022-09-12T07:41:54.916Z,17.70
2022-09-12T07:44:23.580Z,18.12
2022-09-12T07:46:52.326Z,18.63
2022-09-12T07:49:20.295Z,18.27
2022-09-12T07:51:48.220Z,18.05
2022-09-12T07:54:16.150Z,18.73
2022-09-12T07:56:44.135Z,19.27
2022-09-12T07:59:13.462Z,19.03
2022-09-12T08:01:41.621Z,18.37
2022-09-12T08:04:09.832Z,18.87
2022-09-12T08:06:40.571Z,19.45
2022-09-12T08:09:08.984Z,19.63
2022-09-12T08:11:37.870Z,19.74
2022-09-12T08:14:05.902Z,19.69
2022-09-12T08:16:35.514Z,19.69
2022-09-12T08:19:04.438Z,19.61
2022-09-12T08:21:33.410Z,19.55
2022-09-12T08:24:03.890Z,19.52
2022-09-12T08:26:32.831Z,19.41
2022-09-12T08:29:00.888Z,19.24
2022-09-12T08:31:29.194Z,19.21
2022-09-12T08:33:58.211Z,19.34
2022-09-12T08:36:30.159Z,19.45
2022-09-12T08:39:00.662Z,19.74
2022-09-12T08:42:03.507Z,19.79
2022-09-12T08:44:44.278Z,19.74
2022-09-12T08:47:25.486Z,19.97
2022-09-12T08:50:11.886Z,20.08
2022-09-12T08:53:17.492Z,20.34
2022-09-12T08:55:46.850Z,20.66
2022-09-12T08:58:21.506Z,20.82
2022-09-12T09:01:13.973Z,21.00
2022-09-12T09:04:09.111Z,21.20
2022-09-12T09:06:49.432Z,21.07
2022-09-12T09:09:36.602Z,20.89
2022-09-12T09:12:28.389Z,21.01
2022-09-12T09:15:22.042Z,21.27
2022-09-12T09:17:58.723Z,21.48
2022-09-12T09:20:41.287Z,21.42
2022-09-12T09:23:39.791Z,21.55
2022-09-12T09:26:15.211Z,21.59
2022-09-12T09:28:58.878Z,21.62
2022-09-12T09:31:31.133Z,21.83
2022-09-12T09:34:00.147Z,21.86
2022-09-12T09:36:51.447Z,21.79
2022-09-12T09:39:39.981Z,21.94
2022-09-12T09:42:23.419Z,22.08
2022-09-12T09:44:55.973Z,22.18
2022-09-12T09:47:23.979Z,21.99
2022-09-12T09:49:51.913Z,22.22
2022-09-12T09:52:28.605Z,22.61
2022-09-12T09:55:00.384Z,22.54
2022-09-12T09:57:44.626Z,22.69
2022-09-12T10:00:32.128Z,22.90
2022-09-12T10:03:03.164Z,22.65
2022-09-12T10:05:33.688Z,22.73
2022-09-12T10:08:03.233Z,22.86
2022-09-12T10:10:31.066Z,23.00
2022-09-12T10:13:16.673Z,23.02
2022-09-12T10:15:58.451Z,22.97
2022-09-12T10:18:42.280Z,23.02
2022-09-12T10:21:17.847Z,23.09
2022-09-12T10:23:47.544Z,23.17
2022-09-12T10:26:20.972Z,23.44
2022-09-12T10:28:55.108Z,23.44
2022-09-12T10:31:30.048Z,23.61
2022-09-12T10:34:01.337Z,23.80
2022-09-12T10:36:40.538Z,23.83
2022-09-12T10:39:18.757Z,23.66
2022-09-12T10:41:46.946Z,23.57
2022-09-12T10:44:19.278Z,23.61
2022-09-12T10:46:47.452Z,23.75
2022-09-12T10:49:23.572Z,23.89
2022-09-12T10:51:54.135Z,23.80
2022-09-12T10:54:27.370Z,23.96
2022-09-12T10:56:58.359Z,24.00
2022-09-12T10:59:58.862Z,24.21
2022-09-12T11:03:02.671Z,24.17
2022-09-12T11:05:52.204Z,24.24
2022-09-12T11:08:29.267Z,24.21
2022-09-12T11:11:37.520Z,24.41
2022-09-12T11:14:14.697Z,24.26
2022-09-12T11:17:15.945Z,24.28
2022-09-12T11:20:22.563Z,24.43
2022-09-12T11:23:09.075Z,24.58
2022-09-12T11:26:04.334Z,24.57
2022-09-12T11:28:50.444Z,24.50
2022-09-12T11:31:54.911Z,24.50
2022-09-12T11:34:44.140Z,24.55
2022-09-12T11:37:43.681Z,24.28
2022-09-12T11:40:55.677Z,24.28
2022-09-12T11:43:33.203Z,24.21
2022-09-12T11:46:18.135Z,24.18
2022-09-12T11:48:54.669Z,23.83
2022-09-12T11:51:35.656Z,23.80
2022-09-12T11:54:21.043Z,23.92
2022-09-12T11:56:59.646Z,24.10
2022-09-12T11:59:52.719Z,24.27
2022-09-12T12:02:29.570Z,24.34
2022-09-12T12:05:16.453Z,24.28
2022-09-12T12:07:56.647Z,24.17
2022-09-12T12:10:36.530Z,24.27
2022-09-12T12:13:17.993Z,24.41
2022-09-12T12:15:52.869Z,24.51
2022-09-12T12:18:30.984Z,24.58
2022-09-12T12:21:31.879Z,24.73
2022-09-12T12:24:26.173Z,24.80
2022-09-12T12:26:58.725Z,24.93
2022-09-12T12:29:35.120Z,24.96
2022-09-12T12:32:03.525Z,25.05
2022-09-12T12:34:31.504Z,25.16
2022-09-12T12:37:23.213Z,25.02
2022-09-12T12:40:01.007Z,24.93
2022-09-12T12:42:37.822Z,24.69
2022-09-12T12:45:20.505Z,24.62
2022-09-12T12:47:58.974Z,24.48
2022-09-12T12:50:31.539Z,24.68
2022-09-12T12:53:19.571Z,24.73
2022-09-12T12:55:52.831Z,24.88
2022-09-12T12:58:20.535Z,24.48
2022-09-12T13:01:01.065Z,24.41
2022-09-12T13:03:31.792Z,24.44
2022-09-12T13:06:07.969Z,24.61
2022-09-12T13:08:40.923Z,24.79
2022-09-12T13:11:15.401Z,25.03
2022-09-12T13:13:58.934Z,25.00
2022-09-12T13:16:52.062Z,24.68
2022-09-12T13:19:27.330Z,24.58
2022-09-12T13:22:01.793Z,24.61
2022-09-12T13:24:29.731Z,24.69
2022-09-12T13:26:57.822Z,24.64
2022-09-12T13:29:27.516Z,24.64
2022-09-12T13:31:56.678Z,24.72
2022-09-12T13:34:31.286Z,24.80
2022-09-12T13:37:08.947Z,24.71
2022-09-12T13:39:48.083Z,24.58
2022-09-12T13:42:48.676Z,24.50
2022-09-12T13:45:39.552Z,24.51
2022-09-12T13:48:16.371Z,24.41
2022-09-12T13:50:52.833Z,24.44
2022-09-12T13:53:25.770Z,24.51
2022-09-12T13:55:59.346Z,24.58
2022-09-12T13:58:37.355Z,24.48
2022-09-12T14:01:11.233Z,24.62
2022-09-12T14:04:15.403Z,24.48
2022-09-12T14:06:50.039Z,24.45
2022-09-12T14:09:29.798Z,24.54
2022-09-12T14:11:58.975Z,24.52
2022-09-12T14:14:36.485Z,24.44
2022-09-12T14:17:24.008Z,24.58
2022-09-12T14:19:55.420Z,24.72
2022-09-12T14:22:24.409Z,24.64
2022-09-12T14:24:52.724Z,24.65
2022-09-12T14:27:31.890Z,24.52
2022-09-12T14:30:12.633Z,24.61
2022-09-12T14:32:41.502Z,24.58
2022-09-12T14:35:12.304Z,24.67
2022-09-12T14:37:40.694Z,24.73
2022-09-12T14:40:21.549Z,24.71
2022-09-12T14:42:51.218Z,24.51
2022-09-12T14:45:25.656Z,24.54
2022-09-12T14:47:54.370Z,24.43
2022-09-12T14:50:31.656Z,24.28
2022-09-12T14:53:08.269Z,24.45
2022-09-12T14:55:46.285Z,24.43
2022-09-12T14:58:26.744Z,24.51
2022-09-12T15:01:02.604Z,24.26
2022-09-12T15:03:36.502Z,24.13
2022-09-12T15:06:08.050Z,24.14
2022-09-12T15:08:36.274Z,24.07
2022-09-12T15:11:07.781Z,24.05
2022-09-12T15:13:41.866Z,24.17
2022-09-12T15:16:11.998Z,24.23
2022-09-12T15:18:39.884Z,24.20
2022-09-12T15:21:11.937Z,24.35
2022-09-12T15:23:50.878Z,24.31
2022-09-12T15:26:23.904Z,24.28
2022-09-12T15:28:52.066Z,24.26
2022-09-12T15:31:30.959Z,24.20
2022-09-12T15:34:01.631Z,24.18
2022-09-12T15:36:29.966Z,24.21
2022-09-12T15:38:58.276Z,24.14
2022-09-12T15:41:32.645Z,24.06
2022-09-12T15:44:02.029Z,23.98
2022-09-12T15:46:30.790Z,23.90
2022-09-12T15:48:58.786Z,23.83
2022-09-12T15:51:26.699Z,23.83
2022-09-12T15:53:54.794Z,23.73
2022-09-12T15:56:23.331Z,23.68
2022-09-12T15:58:59.855Z,23.71
2022-09-12T16:01:28.873Z,23.68
2022-09-12T16:03:57.372Z,23.57
2022-09-12T16:06:25.270Z,23.52
2022-09-12T16:08:53.070Z,23.48
2022-09-12T16:11:24.137Z,23.48
2022-09-12T16:13:56.625Z,23.50
2022-09-12T16:16:24.756Z,23.48
2022-09-12T16:18:52.791Z,23.44
2022-09-12T16:21:20.774Z,23.47
2022-09-12T16:23:49.061Z,23.37
2022-09-12T16:26:17.289Z,23.31
2022-09-12T16:28:45.406Z,23.34
2022-09-12T16:31:15.689Z,23.31
2022-09-12T16:33:43.508Z,23.30
2022-09-12T16:36:13.861Z,23.26
2022-09-12T16:38:47.094Z,23.27
2022-09-12T16:41:16.145Z,23.17
2022-09-12T16:43:45.565Z,23.09
2022-09-12T16:46:16.217Z,23.03
2022-09-12T16:48:52.032Z,22.99
2022-09-12T16:51:23.727Z,22.92
2022-09-12T16:53:52.145Z,22.85
2022-09-12T16:56:20.361Z,22.76
2022-09-12T16:58:49.430Z,22.73
2022-09-12T17:01:20.256Z,22.66
2022-09-12T17:03:48.894Z,22.55
2022-09-12T17:06:18.351Z,22.47
2022-09-12T17:08:48.859Z,22.37
2022-09-12T17:11:22.661Z,22.24
2022-09-12T17:14:11.385Z,22.14
2022-09-12T17:16:42.575Z,22.01
2022-09-12T17:19:15.881Z,21.90
2022-09-12T17:21:44.852Z,21.78
2022-09-12T17:24:12.625Z,21.66
2022-09-12T17:26:40.495Z,21.62
2022-09-12T17:29:08.959Z,21.62
2022-09-12T17:31:36.809Z,21.65
2022-09-12T17:34:04.858Z,21.56
2022-09-12T17:36:32.711Z,21.51
2022-09-12T17:39:04.118Z,21.49
2022-09-12T17:41:32.250Z,21.42
2022-09-12T17:44:02.382Z,21.31
2022-09-12T17:46:35.854Z,21.21
2022-09-12T17:49:08.925Z,21.14
2022-09-12T17:51:36.872Z,21.04
2022-09-12T17:54:10.034Z,21.06
2022-09-12T17:56:39.000Z,21.04
2022-09-12T17:59:08.767Z,20.97
2022-09-12T18:01:55.222Z,20.93
2022-09-12T18:04:23.300Z,20.86
2022-09-12T18:06:51.460Z,20.89
2022-09-12T18:09:23.628Z,20.84
2022-09-12T18:11:52.204Z,20.80
2022-09-12T18:14:20.972Z,20.71
2022-09-12T18:16:52.436Z,20.62
2022-09-12T18:19:20.870Z,20.52
2022-09-12T18:21:51.524Z,20.42
2022-09-12T18:24:19.509Z,20.38
2022-09-12T18:26:48.031Z,20.31
2022-09-12T18:29:16.961Z,20.24
2022-09-12T18:31:46.762Z,20.17
2022-09-12T18:34:21.025Z,20.13
2022-09-12T18:36:49.695Z,20.10
2022-09-12T18:39:18.275Z,20.06
2022-09-12T18:41:46.434Z,20.04
2022-09-12T18:44:14.495Z,19.98
2022-09-12T18:46:42.573Z,19.90
2022-09-12T18:49:10.653Z,19.82
2022-09-12T18:51:41.598Z,19.77
2022-09-12T18:54:14.396Z,19.73
2022-09-12T18:56:44.037Z,19.69
2022-09-12T18:59:15.522Z,19.65
2022-09-12T19:01:44.523Z,19.59
2022-09-12T19:04:16.624Z,19.56
2022-09-12T19:06:48.204Z,19.55
2022-09-12T19:09:18.807Z,19.48
2022-09-12T19:11:50.876Z,19.41
2022-09-12T19:14:22.642Z,19.36
2022-09-12T19:16:52.242Z,19.31
2022-09-12T19:19:20.743Z,19.25
2022-09-12T19:21:48.576Z,19.18
2022-09-12T19:24:17.371Z,19.15
2022-09-12T19:26:45.498Z,19.10
2022-09-12T19:29:14.712Z,19.08
2022-09-12T19:31:43.189Z,19.12
2022-09-12T19:34:12.555Z,19.14
2022-09-12T19:36:45.806Z,19.10
2022-09-12T19:39:16.147Z,19.06
2022-09-12T19:41:44.780Z,18.99
2022-09-12T19:44:12.814Z,18.90
2022-09-12T19:46:41.029Z,18.86
2022-09-12T19:49:11.535Z,18.76
2022-09-12T19:51:43.884Z,18.70
2022-09-12T19:54:12.014Z,18.67
2022-09-12T19:56:39.883Z,18.63
2022-09-12T19:59:08.745Z,18.56
2022-09-12T20:01:37.959Z,18.44
2022-09-12T20:04:06.907Z,18.38
2022-09-12T20:06:36.764Z,18.34
2022-09-12T20:09:07.613Z,18.27
2022-09-12T20:11:35.627Z,18.27
2022-09-12T20:14:03.734Z,18.22
2022-09-12T20:16:33.411Z,18.22
2022-09-12T20:19:06.912Z,18.24
2022-09-12T20:21:41.586Z,18.25
2022-09-12T20:24:14.476Z,18.37
2022-09-12T20:26:42.875Z,18.44
2022-09-12T20:29:11.297Z,18.52
2022-09-12T20:31:41.679Z,18.55
2022-09-12T20:34:15.445Z,18.59
2022-09-12T20:36:43.735Z,18.62
2022-09-12T20:39:17.628Z,18.60
2022-09-12T20:41:46.250Z,18.59
2022-09-12T20:44:14.572Z,18.56
2022-09-12T20:46:42.935Z,18.55
2022-09-12T20:49:10.774Z,18.51
2022-09-12T20:51:38.980Z,18.39
2022-09-12T20:54:07.885Z,18.37
2022-09-12T20:56:37.730Z,18.28
2022-09-12T20:59:06.232Z,18.21
2022-09-12T21:01:34.795Z,18.14
2022-09-12T21:04:03.405Z,18.12
2022-09-12T21:06:31.816Z,18.04
2022-09-12T21:09:00.493Z,17.98
2022-09-12T21:11:29.456Z,17.97
2022-09-12T21:13:57.876Z,17.91
2022-09-12T21:16:26.826Z,17.89
2022-09-12T21:18:57.362Z,17.83
2022-09-12T21:21:25.809Z,17.80
2022-09-12T21:23:57.211Z,17.79
2022-09-12T21:26:25.014Z,17.76
2022-09-12T21:28:53.047Z,17.72
2022-09-12T21:31:22.605Z,17.67
2022-09-12T21:33:51.901Z,17.65
2022-09-12T21:36:19.782Z,17.66
2022-09-12T21:38:47.770Z,17.69
2022-09-12T21:41:17.184Z,17.66
2022-09-12T21:43:45.548Z,17.70
2022-09-12T21:46:13.394Z,17.70
2022-09-12T21:48:43.323Z,17.73
2022-09-12T21:51:11.179Z,17.77
2022-09-12T21:53:39.231Z,17.83
2022-09-12T21:56:08.754Z,17.86
2022-09-12T21:58:37.797Z,17.91
2022-09-12T22:01:11.020Z,17.96
2022-09-12T22:03:39.027Z,18.04
2022-09-12T22:06:07.751Z,18.04
2022-09-12T22:08:37.735Z,18.10
2022-09-12T22:11:09.331Z,18.15
2022-09-12T22:13:43.734Z,18.18
2022-09-12T22:16:12.307Z,18.18
2022-09-12T22:18:40.247Z,18.21
2022-09-12T22:21:24.856Z,18.21
2022-09-12T22:24:11.181Z,18.24
2022-09-12T22:26:43.851Z,18.27
2022-09-12T22:29:13.242Z,18.28
2022-09-12T22:31:41.482Z,18.32
2022-09-12T22:34:10.377Z,18.34
2022-09-12T22:36:39.343Z,18.39
2022-09-12T22:39:08.935Z,18.39
2022-09-12T22:41:36.905Z,18.48
2022-09-12T22:44:06.364Z,18.45
2022-09-12T22:46:34.527Z,18.51
2022-09-12T22:49:02.408Z,18.51
2022-09-12T22:51:30.833Z,18.51
2022-09-12T22:53:58.820Z,18.51
2022-09-12T22:56:26.974Z,18.53
2022-09-12T22:58:55.046Z,18.53
2022-09-12T23:01:23.813Z,18.56
2022-09-12T23:03:51.681Z,18.51
2022-09-12T23:06:19.555Z,18.53
2022-09-12T23:08:47.294Z,18.52
2022-09-12T23:11:19.498Z,18.51
2022-09-12T23:13:48.646Z,18.49
2022-09-12T23:16:19.547Z,18.46
2022-09-12T23:18:49.654Z,18.49
2022-09-12T23:21:19.859Z,18.48
2022-09-12T23:23:48.346Z,18.46
2022-09-12T23:26:21.723Z,18.46
2022-09-12T23:28:54.889Z,18.48
2022-09-12T23:31:24.704Z,18.45
2022-09-12T23:33:56.521Z,18.49
2022-09-12T23:36:25.585Z,18.48
2022-09-12T23:38:55.040Z,18.48
2022-09-12T23:41:22.963Z,18.46
2022-09-12T23:43:50.777Z,18.48
2022-09-12T23:46:19.805Z,18.49
2022-09-12T23:48:48.303Z,18.52
2022-09-12T23:51:16.315Z,18.56
2022-09-12T23:53:44.098Z,18.55
2022-09-12T23:56:11.883Z,18.56
2022-09-12T23:58:39.716Z,18.56
